Time;durP1;ratioP1;P1;durP2;ratioP2;P2;SDS_P1;SDS_P2;PMS_P1;PMS_P2;Temp;Humidity;BMP_temperature;BMP_pressure;BME280_temperature;BME280_humidity;BME280_pressure;Samples;Min_cycle;Max_cycle;Signal;HPM_P1;HPM_P2
2022/02/12 00:01:24;;;;;;;2.30;2.20;;;;;;;-3.11;91.91;102884.28;6038837;23;20037;-71
2022/02/12 00:03:51;;;;;;;2.53;2.42;;;;;;;-3.49;91.83;102814.34;6032550;23;20072;-72
2022/02/12 00:06:18;;;;;;;2.40;2.30;;;;;;;-3.05;91.70;102906.75;6038565;23;20024;-73
2022/02/12 00:08:44;;;;;;;2.55;2.45;;;;;;;-2.84;91.16;102941.00;6013674;23;20019;-72
2022/02/12 00:11:10;;;;;;;2.40;2.30;;;;;;;-3.22;92.23;102873.59;6031641;23;20026;-71
2022/02/12 00:13:37;;;;;;;2.40;2.30;;;;;;;-2.59;93.01;102969.34;5997362;23;20047;-71
2022/02/12 00:16:03;;;;;;;3.60;3.50;;;;;;;-3.13;92.41;102869.63;5991458;23;20113;-71
2022/02/12 00:18:30;;;;;;;2.35;2.25;;;;;;;-3.67;92.31;102776.00;6032709;23;20363;-71
2022/02/12 00:20:56;;;;;;;3.30;3.20;;;;;;;-2.52;93.37;102971.34;6000093;23;20548;-71
2022/02/12 00:23:23;;;;;;;2.50;2.40;;;;;;;-3.01;93.14;102877.81;6037042;23;20077;-71
2022/02/12 00:25:51;;;;;;;2.30;2.20;;;;;;;-3.16;91.99;102860.13;5996073;23;20137;-71
2022/02/12 00:28:18;;;;;;;3.28;3.08;;;;;;;-3.45;93.06;102817.88;6004093;23;20077;-72
2022/02/12 00:30:44;;;;;;;2.60;2.50;;;;;;;-2.84;93.04;102925.59;5982929;23;20038;-71
2022/02/12 00:33:11;;;;;;;4.75;4.53;;;;;;;-2.63;92.92;102948.69;6018640;23;20015;-71
2022/02/12 00:35:37;;;;;;;2.40;2.30;;;;;;;-3.14;93.58;102855.06;6008221;23;20037;-71
2022/02/12 00:38:04;;;;;;;3.67;3.58;;;;;;;-2.63;93.14;102945.22;6030367;23;20017;-71
2022/02/12 00:40:30;;;;;;;2.30;2.20;;;;;;;-3.00;93.21;102892.41;6034905;23;20025;-71
2022/02/12 00:42:57;;;;;;;3.45;3.35;;;;;;;-2.82;93.39;102916.25;6038554;23;20011;-73
2022/02/12 00:45:23;;;;;;;2.85;2.75;;;;;;;-3.11;92.82;102870.56;6008713;23;20203;-72
2022/02/12 00:47:50;;;;;;;3.05;2.95;;;;;;;-3.76;92.83;102764.47;6037542;23;20026;-71
2022/02/12 00:50:16;;;;;;;2.40;2.30;;;;;;;-2.80;93.16;102921.44;5973996;23;20086;-71
2022/02/12 00:52:43;;;;;;;2.33;2.22;;;;;;;-3.37;92.75;102829.31;5976179;23;20101;-71
2022/02/12 00:55:09;;;;;;;3.92;3.72;;;;;;;-3.90;93.88;102728.00;6047645;23;20029;-71
2022/02/12 00:57:36;;;;;;;2.30;2.20;;;;;;;-3.13;92.92;102872.19;6027509;23;20102;-71
2022/02/12 01:00:05;;;;;;;3.60;3.50;;;;;;;-2.80;93.49;102908.59;6045648;23;20109;-71
2022/02/12 01:02:31;;;;;;;2.40;2.30;;;;;;;-2.63;93.72;102933.28;6031777;23;20030;-73
2022/02/12 01:04:58;;;;;;;3.90;3.72;;;;;;;-2.55;93.55;102946.38;5969510;23;20022;-73
2022/02/12 01:07:24;;;;;;;2.50;2.40;;;;;;;-2.92;94.35;102869.59;6011348;23;20034;-72
2022/02/12 01:09:51;;;;;;;2.42;2.33;;;;;;;-2.67;93.71;102923.66;5997624;23;20240;-71
2022/02/12 01:12:17;;;;;;;2.40;2.30;;;;;;;-2.71;93.61;102905.50;6033943;23;20021;-72
2022/02/12 01:14:43;;;;;;;3.85;3.03;;;;;;;-2.48;93.90;102940.69;6034488;23;20082;-70
2022/02/12 01:17:10;;;;;;;2.90;2.80;;;;;;;-2.67;93.56;102890.25;6004821;23;20342;-71
2022/02/12 01:19:37;;;;;;;2.20;2.10;;;;;;;-2.44;94.02;102936.53;6030913;23;20018;-70
2022/02/12 01:22:04;;;;;;;3.88;3.72;;;;;;;-2.63;93.42;102899.84;6027592;23;20059;-71
2022/02/12 01:24:30;;;;;;;2.85;2.75;;;;;;;-2.53;94.66;102924.19;5984149;23;20034;-72
2022/02/12 01:26:57;;;;;;;3.47;3.38;;;;;;;-2.58;94.91;102938.56;6026350;23;20042;-73
2022/02/12 01:29:23;;;;;;;2.78;2.67;;;;;;;-2.90;94.37;102873.97;5999282;23;20110;-72
2022/02/12 01:31:50;;;;;;;2.50;2.40;;;;;;;-2.75;95.01;102913.91;6007941;23;20663;-71
2022/02/12 01:34:19;;;;;;;4.38;4.18;;;;;;;-2.76;94.70;102901.91;6032260;23;20030;-70
2022/02/12 01:36:45;;;;;;;2.30;2.20;;;;;;;-2.73;94.69;102922.56;6003964;23;20030;-70
2022/02/12 01:39:12;;;;;;;5.30;3.20;;;;;;;-2.95;96.04;102895.16;5998421;23;21334;-72
2022/02/12 01:41:38;;;;;;;2.30;2.20;;;;;;;-2.74;96.44;102925.97;6024625;23;20658;-72
2022/02/12 01:44:10;;;;;;;4.85;4.55;;;;;;;-2.77;96.48;102929.25;6005368;23;20102;-71
2022/02/12 01:46:37;;;;;;;2.40;2.30;;;;;;;-2.83;95.19;102918.75;6016817;23;20107;-71
2022/02/12 01:49:04;;;;;;;3.88;3.70;;;;;;;-2.81;96.87;102917.13;6017050;23;20025;-71
2022/02/12 01:51:31;;;;;;;2.40;2.30;;;;;;;-3.03;96.52;102882.00;6023014;23;20553;-71
2022/02/12 01:53:58;;;;;;;4.03;3.85;;;;;;;-3.58;96.23;102792.56;5960604;23;20029;-70
2022/02/12 01:56:25;;;;;;;2.20;2.10;;;;;;;-3.53;96.75;102801.31;6033494;23;20365;-71
2022/02/12 01:58:51;;;;;;;2.53;2.42;;;;;;;-3.41;96.08;102838.63;5999466;23;20093;-71
2022/02/12 02:01:18;;;;;;;2.70;2.60;;;;;;;-2.98;96.57;102906.19;6006173;23;20086;-71
2022/02/12 02:03:44;;;;;;;2.78;2.67;;;;;;;-3.17;96.11;102880.59;6027026;23;20022;-71
2022/02/12 02:06:12;;;;;;;2.30;2.20;;;;;;;-2.89;96.38;102901.41;6000833;23;20018;-71
2022/02/12 02:08:40;;;;;;;2.13;2.03;;;;;;;-3.56;97.15;102767.84;6003874;23;20082;-71
2022/02/12 02:11:07;;;;;;;4.32;4.13;;;;;;;-3.61;97.48;102729.13;6031392;23;20115;-71
2022/02/12 02:13:33;;;;;;;2.20;2.10;;;;;;;-2.63;97.87;102893.81;6038269;23;20037;-70
2022/02/12 02:15:59;;;;;;;3.75;3.63;;;;;;;-2.64;97.32;102886.94;6030464;23;20079;-72
2022/02/12 02:18:26;;;;;;;2.30;2.20;;;;;;;-2.65;98.19;102909.16;6037065;23;20502;-71
2022/02/12 02:20:52;;;;;;;2.92;2.83;;;;;;;-2.64;98.10;102876.66;5975767;23;20090;-71
2022/02/12 02:23:19;;;;;;;2.30;2.20;;;;;;;-3.30;97.31;102782.53;6031912;23;20007;-71
2022/02/12 02:25:45;;;;;;;2.40;2.30;;;;;;;-3.42;98.03;102776.94;5996532;23;20031;-72
2022/02/12 02:28:12;;;;;;;2.47;2.38;;;;;;;-2.78;98.22;102877.84;6024494;23;20018;-71
2022/02/12 02:30:40;;;;;;;2.20;2.10;;;;;;;-3.57;98.16;102746.41;6034299;23;20082;-71
2022/02/12 02:33:06;;;;;;;4.30;4.10;;;;;;;-2.64;97.27;102876.66;5999759;23;20049;-71
2022/02/12 02:35:33;;;;;;;2.95;2.85;;;;;;;-2.78;97.86;102858.16;5994469;23;20039;-71
2022/02/12 02:38:07;;;;;;;3.78;3.65;;;;;;;-2.72;96.83;102849.81;6005865;23;20463;-70
2022/02/12 02:40:34;;;;;;;2.10;2.00;;;;;;;-2.62;98.27;102873.31;6028885;23;20055;-71
2022/02/12 02:43:01;;;;;;;4.05;3.85;;;;;;;-2.56;97.76;102872.69;6025153;23;20082;-71
2022/02/12 02:45:27;;;;;;;2.22;2.13;;;;;;;-2.96;96.72;102799.25;6001416;23;20105;-71
2022/02/12 02:47:59;;;;;;;2.78;2.67;;;;;;;-2.57;97.85;102865.78;6006450;23;20013;-72
2022/02/12 02:56:01;;;;;;;3.53;3.42;;;;;;;-4.15;96.74;102608.19;6038261;23;20070;-71
2022/02/12 02:59:04;;;;;;;2.20;2.10;;;;;;;-2.70;97.91;102855.88;6031697;23;20026;-71
2022/02/12 03:01:30;;;;;;;2.10;2.00;;;;;;;-3.24;97.68;102785.34;6006284;23;20026;-71
2022/02/12 03:03:58;;;;;;;4.63;4.22;;;;;;;-3.03;98.29;102811.00;6028764;23;20074;-71
2022/02/12 03:06:26;;;;;;;2.20;2.10;;;;;;;-2.77;97.15;102853.88;6033751;23;20046;-71
2022/02/12 03:08:54;;;;;;;2.92;2.83;;;;;;;-3.43;98.72;102740.13;6005715;23;20070;-71
2022/02/12 03:11:20;;;;;;;2.20;2.10;;;;;;;-3.46;98.82;102732.31;6033382;23;20646;-71
2022/02/12 03:13:48;;;;;;;2.33;2.22;;;;;;;-3.26;98.17;102781.84;6013771;23;20024;-71
2022/02/12 03:16:14;;;;;;;2.20;2.10;;;;;;;-4.21;98.37;102598.56;6051712;23;20609;-71
2022/02/12 03:18:44;;;;;;;2.38;2.28;;;;;;;-2.83;99.29;102846.81;6037390;23;20186;-70
2022/02/12 03:21:11;;;;;;;2.63;2.53;;;;;;;-3.42;98.39;102758.97;5989820;23;20757;-71
2022/02/12 03:23:38;;;;;;;2.28;2.17;;;;;;;-3.83;98.70;102701.75;6030430;23;20035;-71
2022/02/12 03:26:05;;;;;;;4.05;3.85;;;;;;;-3.16;98.12;102797.63;5980028;23;20091;-71
2022/02/12 03:28:31;;;;;;;2.08;1.98;;;;;;;-3.81;98.83;102690.78;6024920;23;20014;-71
2022/02/12 03:30:58;;;;;;;3.83;3.67;;;;;;;-3.58;99.14;102720.72;6048006;23;20326;-71
2022/02/12 03:33:24;;;;;;;2.25;2.15;;;;;;;-3.16;98.84;102772.81;6004305;23;20074;-71
2022/02/12 03:35:53;;;;;;;2.90;2.80;;;;;;;-4.22;99.16;102613.06;6047868;23;20098;-70
2022/02/12 03:38:24;;;;;;;2.30;2.20;;;;;;;-2.72;99.61;102837.81;6031642;23;20377;-72
2022/02/12 03:40:54;;;;;;;2.50;2.40;;;;;;;-2.71;98.86;102824.13;5994342;23;20015;-72
2022/02/12 03:43:20;;;;;;;2.22;2.13;;;;;;;-2.84;99.26;102799.69;6013702;23;20060;-70
2022/02/12 03:45:47;;;;;;;2.40;2.30;;;;;;;-2.56;98.65;102822.97;6043115;23;20043;-70
2022/02/12 03:48:15;;;;;;;2.30;2.20;;;;;;;-2.55;98.50;102837.56;6011644;23;20043;-71
2022/02/12 03:50:42;;;;;;;2.30;2.20;;;;;;;-3.11;98.35;102737.00;6005796;23;20082;-70
2022/02/12 03:53:09;;;;;;;3.30;3.20;;;;;;;-2.71;99.70;102802.69;6001306;23;20769;-72
2022/02/12 03:55:37;;;;;;;2.20;2.10;;;;;;;-2.60;99.88;102814.25;6041064;23;20026;-71
2022/02/12 03:58:05;;;;;;;4.72;4.38;;;;;;;-2.63;98.98;102819.28;6006149;23;20057;-71
2022/02/12 04:00:31;;;;;;;2.30;2.20;;;;;;;-3.27;98.53;102704.75;6008369;23;20410;-71
2022/02/12 04:02:58;;;;;;;3.83;3.67;;;;;;;-3.05;98.52;102750.09;6012071;23;20059;-71
2022/02/12 04:05:24;;;;;;;2.20;2.10;;;;;;;-2.69;99.22;102814.78;5994783;23;20361;-70
2022/02/12 04:07:50;;;;;;;2.20;2.10;;;;;;;-2.75;98.78;102811.13;6014404;23;20019;-71
2022/02/12 04:10:17;;;;;;;2.30;2.20;;;;;;;-2.81;100.00;102812.66;6025715;23;20086;-71
2022/02/12 04:12:45;;;;;;;2.20;2.10;;;;;;;-2.86;99.58;102805.59;5999638;23;20183;-71
2022/02/12 04:15:12;;;;;;;2.65;2.55;;;;;;;-4.01;99.35;102615.63;6029318;23;20097;-71
2022/02/12 04:17:41;;;;;;;2.13;2.03;;;;;;;-3.54;100.00;102702.03;6013524;23;20049;-70
2022/02/12 04:20:10;;;;;;;3.80;3.65;;;;;;;-3.57;99.97;102715.59;5984141;23;20019;-70
2022/02/12 04:22:38;;;;;;;2.40;2.30;;;;;;;-2.99;100.00;102806.81;6015905;23;20207;-73
2022/02/12 04:25:06;;;;;;;4.38;4.18;;;;;;;-3.29;99.65;102761.16;6018955;23;20036;-70
2022/02/12 04:27:33;;;;;;;2.10;2.00;;;;;;;-3.30;99.73;102767.13;6033122;23;20090;-71
2022/02/12 04:30:00;;;;;;;3.80;3.65;;;;;;;-3.05;100.00;102797.22;6001985;23;20106;-70
2022/02/12 04:32:27;;;;;;;2.20;2.10;;;;;;;-3.02;100.00;102799.00;6026512;23;20128;-70
2022/02/12 04:34:54;;;;;;;3.15;3.03;;;;;;;-3.62;100.00;102696.63;6023117;23;20140;-71
2022/02/12 04:37:22;;;;;;;4.57;4.38;;;;;;;-3.11;100.00;102796.09;5971017;23;20016;-70
2022/02/12 04:39:49;;;;;;;2.75;2.65;;;;;;;-3.18;100.00;102789.84;6035781;23;20106;-71
2022/02/12 04:42:17;;;;;;;2.40;2.30;;;;;;;-3.21;100.00;102793.19;6043844;23;20370;-71
2022/02/12 04:44:48;;;;;;;3.75;3.00;;;;;;;-3.19;100.00;102789.78;6030884;23;20091;-70
2022/02/12 04:47:16;;;;;;;2.20;2.10;;;;;;;-3.81;100.00;102684.75;6046863;23;20027;-71
2022/02/12 04:49:43;;;;;;;2.10;2.00;;;;;;;-3.32;100.00;102745.66;6000515;23;20046;-71
2022/02/12 04:52:13;;;;;;;3.03;2.92;;;;;;;-3.15;100.00;102774.53;6031567;23;20121;-71
2022/02/12 04:54:40;;;;;;;2.55;2.45;;;;;;;-3.47;100.00;102721.97;6033279;23;20039;-71
2022/02/12 04:57:07;;;;;;;4.05;3.85;;;;;;;-3.70;100.00;102698.00;5975021;23;20093;-71
2022/02/12 04:59:34;;;;;;;2.40;2.30;;;;;;;-4.65;100.00;102531.06;6011888;23;20022;-70
2022/02/12 05:02:01;;;;;;;3.70;3.58;;;;;;;-4.69;100.00;102554.78;6027279;23;20094;-71
2022/02/12 05:04:27;;;;;;;2.30;2.20;;;;;;;-3.44;100.00;102740.06;6002977;23;20087;-71
2022/02/12 05:06:54;;;;;;;2.60;2.50;;;;;;;-4.49;100.00;102569.31;6028768;23;20050;-70
2022/02/12 05:09:20;;;;;;;2.05;1.95;;;;;;;-3.23;100.00;102781.06;6032417;23;20030;-71
2022/02/12 05:11:48;;;;;;;3.35;2.90;;;;;;;-3.93;100.00;102666.31;6028537;23;20023;-71
2022/02/12 05:14:15;;;;;;;2.15;2.05;;;;;;;-3.39;100.00;102774.47;6012897;23;20092;-71
2022/02/12 05:16:41;;;;;;;2.40;2.30;;;;;;;-3.68;100.00;102717.78;6036666;23;20027;-71
2022/02/12 05:19:08;;;;;;;4.03;3.85;;;;;;;-3.30;100.00;102786.81;5992542;23;20064;-70
2022/02/12 05:21:35;;;;;;;2.40;2.30;;;;;;;-3.34;100.00;102778.13;6008692;23;20331;-71
2022/02/12 05:24:02;;;;;;;3.55;3.45;;;;;;;-3.34;100.00;102787.50;6027008;23;20022;-70
2022/02/12 05:26:29;;;;;;;2.00;1.90;;;;;;;-3.76;100.00;102716.59;6024414;23;20015;-70
2022/02/12 05:28:56;;;;;;;2.95;2.85;;;;;;;-3.36;100.00;102764.34;5997792;23;20019;-71
2022/02/12 05:31:23;;;;;;;2.30;2.20;;;;;;;-3.36;100.00;102761.78;6006645;23;20019;-70
2022/02/12 05:33:49;;;;;;;2.20;2.10;;;;;;;-3.97;100.00;102664.44;6002180;23;20035;-70
2022/02/12 05:36:16;;;;;;;2.72;2.63;;;;;;;-3.34;100.00;102752.44;5979487;23;20023;-70
2022/02/12 05:38:43;;;;;;;2.40;2.30;;;;;;;-3.80;100.00;102676.25;6011322;23;20010;-71
2022/02/12 05:41:11;;;;;;;3.50;3.40;;;;;;;-3.34;100.00;102749.00;6022354;23;20018;-70
2022/02/12 05:43:38;;;;;;;2.28;2.17;;;;;;;-4.52;100.00;102565.75;6010643;23;20035;-70
2022/02/12 05:46:06;;;;;;;5.28;4.97;;;;;;;-3.52;100.00;102711.53;6040889;23;20056;-72
2022/02/12 05:48:33;;;;;;;2.50;2.40;;;;;;;-3.39;100.00;102742.81;6029193;23;20054;-71
2022/02/12 05:51:01;;;;;;;3.97;3.80;;;;;;;-3.42;100.00;102731.59;5976461;23;20160;-71
2022/02/12 05:53:28;;;;;;;2.40;2.30;;;;;;;-3.81;100.00;102677.03;6032608;23;20026;-71
2022/02/12 05:55:54;;;;;;;3.53;3.38;;;;;;;-3.45;100.00;102730.59;5982159;23;20016;-71
2022/02/12 05:58:22;;;;;;;2.30;2.20;;;;;;;-4.16;100.00;102604.75;5997505;23;20039;-71
2022/02/12 06:00:50;;;;;;;2.15;2.05;;;;;;;-3.46;100.00;102722.03;6014522;23;20046;-71
2022/02/12 06:03:18;;;;;;;2.20;2.10;;;;;;;-3.46;100.00;102723.75;6028020;23;20077;-71
2022/02/12 06:05:45;;;;;;;2.40;2.30;;;;;;;-3.43;100.00;102721.28;5998048;23;20436;-71
2022/02/12 06:08:12;;;;;;;2.20;2.10;;;;;;;-3.94;100.00;102655.19;6023945;23;20094;-71
2022/02/12 06:10:44;;;;;;;2.13;2.03;;;;;;;-4.34;100.00;102583.53;6030333;23;20019;-71
2022/02/12 06:13:10;;;;;;;3.58;3.47;;;;;;;-3.47;100.00;102715.16;6020834;23;20029;-71
2022/02/12 06:15:37;;;;;;;2.72;2.63;;;;;;;-4.48;100.00;102555.66;6008171;23;20031;-71
2022/02/12 06:18:04;;;;;;;3.90;3.75;;;;;;;-3.50;100.00;102725.31;6007804;23;20046;-71
2022/02/12 06:20:31;;;;;;;2.15;2.05;;;;;;;-3.49;100.00;102721.94;5995152;23;20015;-70
2022/02/12 06:22:58;;;;;;;4.35;4.15;;;;;;;-3.47;100.00;102720.31;6034548;23;20011;-71
2022/02/12 06:25:24;;;;;;;2.40;2.30;;;;;;;-3.48;100.00;102722.81;6028113;23;20114;-70
2022/02/12 06:27:51;;;;;;;2.30;2.20;;;;;;;-3.48;100.00;102723.66;6001213;23;20090;-70
2022/02/12 06:30:17;;;;;;;2.40;2.30;;;;;;;-3.45;100.00;102723.81;6028769;23;20050;-70
2022/02/12 06:32:44;;;;;;;2.40;2.30;;;;;;;-3.47;100.00;102715.16;6018168;23;20451;-70
2022/02/12 06:35:10;;;;;;;2.58;2.47;;;;;;;-3.69;100.00;102671.53;6027603;23;20027;-70
2022/02/12 06:37:37;;;;;;;2.60;2.50;;;;;;;-3.57;100.00;102697.66;6021442;23;20029;-70
2022/02/12 06:40:03;;;;;;;3.75;3.63;;;;;;;-3.75;100.00;102659.31;5999966;23;20035;-70
2022/02/12 06:42:30;;;;;;;2.65;2.55;;;;;;;-3.92;100.00;102665.50;6029963;23;20519;-70
2022/02/12 06:44:56;;;;;;;4.03;3.85;;;;;;;-3.52;100.00;102714.09;5997950;23;20019;-71
2022/02/12 06:47:23;;;;;;;2.20;2.10;;;;;;;-3.76;100.00;102662.72;5973372;23;20037;-70
2022/02/12 06:49:49;;;;;;;2.15;2.05;;;;;;;-3.96;100.00;102630.31;6006440;23;20033;-71
2022/02/12 06:52:16;;;;;;;2.40;2.30;;;;;;;-3.51;100.00;102704.72;6013882;23;20017;-71
2022/02/12 06:54:43;;;;;;;2.30;2.20;;;;;;;-3.44;100.00;102699.88;5998808;23;20035;-71
2022/02/12 06:57:09;;;;;;;3.78;3.67;;;;;;;-3.84;100.00;102605.13;6013579;23;20050;-72
2022/02/12 06:59:36;;;;;;;3.30;2.83;;;;;;;-3.32;100.00;102691.75;5973289;23;20027;-72
2022/02/12 07:02:04;;;;;;;3.67;3.55;;;;;;;-4.09;100.00;102545.22;5998492;23;20010;-71
2022/02/12 07:04:31;;;;;;;2.40;2.30;;;;;;;-3.18;100.00;102694.84;5972969;23;20023;-71
2022/02/12 07:06:57;;;;;;;3.38;3.28;;;;;;;-4.20;100.00;102528.53;6004841;23;20057;-71
2022/02/12 07:09:24;;;;;;;2.30;2.20;;;;;;;-3.77;100.00;102604.53;6022849;23;20023;-70
2022/02/12 07:11:50;;;;;;;2.20;2.10;;;;;;;-3.81;100.00;102590.72;5996919;23;20025;-71
2022/02/12 07:14:16;;;;;;;2.70;2.60;;;;;;;-3.33;100.00;102682.28;6020919;23;20033;-70
2022/02/12 07:16:44;;;;;;;2.30;2.20;;;;;;;-3.29;100.00;102686.72;5999678;23;20027;-71
2022/02/12 07:19:11;;;;;;;4.38;4.07;;;;;;;-3.20;100.00;102670.78;6021923;23;20078;-70
2022/02/12 07:21:37;;;;;;;2.33;2.22;;;;;;;-3.04;100.00;102703.91;6000022;23;20667;-70
2022/02/12 07:24:04;;;;;;;4.18;3.97;;;;;;;-3.33;100.00;102650.63;6017610;23;20029;-70
2022/02/12 07:26:31;;;;;;;2.30;2.20;;;;;;;-3.59;100.00;102594.06;6014347;23;20027;-70
2022/02/12 07:28:57;;;;;;;3.90;3.75;;;;;;;-3.31;100.00;102628.44;5987865;23;20051;-71
2022/02/12 07:31:28;;;;;;;2.65;2.55;;;;;;;-3.52;100.00;102572.94;6020300;23;20192;-71
2022/02/12 07:33:54;;;;;;;3.00;2.90;;;;;;;-2.79;100.00;102688.50;5984987;23;20026;-71
2022/02/12 07:36:20;;;;;;;13.45;3.30;;;;;;;-3.27;100.00;102597.81;6016809;23;20534;-72
2022/02/12 07:38:47;;;;;;;2.50;2.40;;;;;;;-2.63;100.00;102693.34;5992545;23;20015;-71
2022/02/12 07:41:16;;;;;;;2.60;2.50;;;;;;;-2.56;100.00;102690.16;6021182;23;20033;-71
2022/02/12 07:43:44;;;;;;;2.70;2.60;;;;;;;-2.46;100.00;102697.38;6008963;23;20082;-71
2022/02/12 07:46:12;;;;;;;4.03;3.85;;;;;;;-3.00;100.00;102599.59;6001377;23;20595;-71
2022/02/12 07:48:39;;;;;;;2.47;2.38;;;;;;;-2.95;100.00;102572.34;6028419;23;20025;-72
2022/02/12 07:51:07;;;;;;;3.53;3.40;;;;;;;-2.20;100.00;102705.06;6018036;23;20030;-71
2022/02/12 07:53:34;;;;;;;2.40;2.30;;;;;;;-2.87;100.00;102573.47;6013826;23;20030;-71
2022/02/12 07:56:03;;;;;;;2.40;2.30;;;;;;;-2.57;100.00;102615.56;6032248;23;20033;-71
2022/02/12 07:58:30;;;;;;;2.40;2.30;;;;;;;-2.04;100.00;102689.31;6004731;23;20023;-71
2022/02/12 08:00:56;;;;;;;2.40;2.30;;;;;;;-1.96;100.00;102686.97;6014057;23;20070;-71
2022/02/12 08:03:23;;;;;;;3.75;3.55;;;;;;;-2.21;100.00;102641.59;6003262;23;20094;-71
2022/02/12 08:05:49;;;;;;;2.65;2.55;;;;;;;-2.23;100.00;102618.38;5991519;23;20030;-72
2022/02/12 08:08:16;;;;;;;4.18;3.97;;;;;;;-1.89;100.00;102665.75;6027367;23;20648;-71
2022/02/12 08:13:27;;;;;;;2.67;2.58;;;;;;;-1.63;100.00;102692.28;6022510;23;20656;-72
2022/02/12 08:15:54;;;;;;;2.70;2.60;;;;;;;-1.76;100.00;102640.38;6026625;23;20354;-72
2022/02/12 08:18:20;;;;;;;3.42;3.33;;;;;;;-1.91;100.00;102605.66;6021782;23;20045;-72
2022/02/12 08:20:46;;;;;;;2.50;2.40;;;;;;;-1.55;100.00;102643.59;5986755;23;20075;-71
2022/02/12 08:23:14;;;;;;;3.80;3.67;;;;;;;-2.49;100.00;102501.00;5995462;23;20646;-71
2022/02/12 08:25:40;;;;;;;3.15;3.05;;;;;;;-1.45;100.00;102634.44;6001436;23;20098;-71
2022/02/12 08:28:06;;;;;;;3.13;3.03;;;;;;;-1.22;100.00;102656.56;5982507;23;20019;-72
2022/02/12 08:30:33;;;;;;;2.60;2.50;;;;;;;-3.30;98.36;102347.81;6017733;23;20019;-71
2022/02/12 08:32:59;;;;;;;2.70;2.60;;;;;;;-1.72;98.84;102562.47;6016538;23;20011;-71
2022/02/12 08:35:46;;;;;;;2.60;2.50;;;;;;;-1.43;97.44;102576.13;6028959;23;20011;-71
2022/02/12 08:38:12;;;;;;;4.65;4.35;;;;;;;-0.91;96.70;102662.56;5991994;23;20015;-71
2022/02/12 08:40:39;;;;;;;2.80;2.70;;;;;;;-1.01;96.26;102619.34;6029534;23;20033;-71
2022/02/12 08:43:07;;;;;;;3.38;3.28;;;;;;;-0.77;96.06;102639.72;6007434;23;20022;-71
2022/02/12 08:45:34;;;;;;;2.50;2.40;;;;;;;-0.70;95.69;102631.34;6022728;23;20026;-71
2022/02/12 08:48:00;;;;;;;2.78;2.67;;;;;;;-0.97;94.92;102572.19;6015667;23;20011;-71
2022/02/12 08:50:27;;;;;;;2.60;2.50;;;;;;;-0.63;94.34;102606.56;5990541;23;20393;-71
2022/02/12 08:52:53;;;;;;;3.67;3.47;;;;;;;-0.81;93.30;102566.59;5974146;23;20062;-71
2022/02/12 08:55:20;;;;;;;4.20;4.00;;;;;;;-1.27;92.50;102462.38;6020600;23;20153;-71
2022/02/12 08:57:46;;;;;;;2.63;2.53;;;;;;;-0.48;92.08;102582.84;6006448;23;20029;-72
2022/02/12 09:00:13;;;;;;;4.35;4.15;;;;;;;-1.56;90.63;102402.44;5999923;23;20555;-72
2022/02/12 09:03:00;;;;;;;2.70;2.60;;;;;;;-0.56;89.85;102515.63;5993084;23;20634;-72
2022/02/12 09:05:27;;;;;;;2.50;2.40;;;;;;;-0.48;88.94;102524.41;5995621;23;20520;-71
2022/02/12 09:07:53;;;;;;;2.72;2.63;;;;;;;0.27;88.97;102627.56;6022070;23;20066;-71
2022/02/12 09:10:20;;;;;;;4.95;4.75;;;;;;;-0.09;88.19;102567.41;5993967;23;20740;-72
2022/02/12 09:12:46;;;;;;;2.70;2.60;;;;;;;0.49;87.95;102623.72;6025964;23;20052;-72
2022/02/12 09:15:13;;;;;;;4.13;3.95;;;;;;;-0.63;87.68;102408.03;5992647;23;20098;-71
2022/02/12 09:17:39;;;;;;;2.75;2.65;;;;;;;0.81;87.39;102629.53;6033127;23;20042;-71
2022/02/12 09:20:06;;;;;;;4.07;3.90;;;;;;;0.48;86.72;102555.69;5995781;23;20039;-72
2022/02/12 09:22:32;;;;;;;2.70;2.60;;;;;;;0.66;86.25;102572.38;6027028;23;20089;-71
2022/02/12 09:24:59;;;;;;;2.65;2.55;;;;;;;1.08;85.29;102626.56;6013705;23;20028;-72
2022/02/12 09:27:25;;;;;;;2.58;2.47;;;;;;;0.58;84.48;102516.28;5992760;23;20043;-70
2022/02/12 09:29:54;;;;;;;2.80;2.70;;;;;;;0.82;84.07;102537.34;6024330;23;20162;-70
2022/02/12 09:32:21;;;;;;;3.53;3.42;;;;;;;1.39;84.11;102616.78;6022945;23;20043;-70
2022/02/12 09:34:47;;;;;;;2.85;2.75;;;;;;;0.68;83.46;102491.50;6017708;23;20082;-71
2022/02/12 09:37:13;;;;;;;4.45;4.25;;;;;;;1.62;83.17;102605.94;6017553;23;20031;-71
2022/02/12 09:39:42;;;;;;;2.72;2.63;;;;;;;1.65;82.07;102613.75;6030441;23;20030;-72
2022/02/12 09:42:10;;;;;;;6.10;5.82;;;;;;;1.41;81.88;102555.59;5988101;23;20090;-71
2022/02/12 09:44:43;;;;;;;2.70;2.60;;;;;;;1.95;80.90;102596.09;6023192;23;20037;-71
2022/02/12 09:47:41;;;;;;;4.68;4.47;;;;;;;2.11;79.50;102598.91;5988903;23;20036;-70
2022/02/12 09:50:09;;;;;;;3.95;3.78;;;;;;;2.36;78.40;102594.88;6020350;23;20098;-73
2022/02/12 09:52:37;;;;;;;3.00;2.90;;;;;;;2.57;77.42;102592.56;6027141;23;20034;-71
2022/02/12 09:55:04;;;;;;;3.28;3.15;;;;;;;2.31;76.55;102543.03;6030767;23;20034;-72
2022/02/12 09:57:31;;;;;;;3.00;2.90;;;;;;;2.19;76.62;102524.75;6030777;23;20022;-71
2022/02/12 10:00:08;;;;;;;2.88;2.78;;;;;;;1.54;75.41;102385.88;6016495;23;20493;-70
2022/02/12 10:02:35;;;;;;;3.00;2.90;;;;;;;2.73;75.33;102554.72;6028808;23;20060;-71
2022/02/12 10:05:31;;;;;;;2.88;2.78;;;;;;;2.68;75.42;102512.31;5993626;23;20419;-71
2022/02/12 10:08:01;;;;;;;2.85;2.75;;;;;;;3.20;74.01;102588.00;6000632;23;20279;-71
2022/02/12 10:10:29;;;;;;;2.95;2.85;;;;;;;3.36;74.64;102569.97;6001191;23;20031;-71
2022/02/12 10:13:12;;;;;;;3.00;2.90;;;;;;;2.95;72.70;102482.31;6026154;23;20394;-71
2022/02/12 10:15:41;;;;;;;2.88;2.78;;;;;;;3.29;72.31;102540.53;6004503;23;20047;-71
2022/02/12 10:18:08;;;;;;;4.28;4.07;;;;;;;3.26;71.12;102513.69;6024895;23;20029;-71
2022/02/12 10:20:37;;;;;;;3.00;2.90;;;;;;;3.03;70.84;102490.13;5972882;23;20022;-71
2022/02/12 10:23:08;;;;;;;3.13;3.03;;;;;;;3.59;71.29;102575.34;5984829;23;20457;-71
2022/02/12 10:25:35;;;;;;;2.97;2.88;;;;;;;3.28;69.55;102506.78;6005753;23;20459;-71
2022/02/12 10:28:03;;;;;;;3.00;2.90;;;;;;;3.59;70.00;102544.19;5978789;23;20138;-71
2022/02/12 10:30:30;;;;;;;3.10;3.00;;;;;;;3.73;69.92;102555.53;5991972;23;20027;-71
2022/02/12 10:33:05;;;;;;;3.00;2.90;;;;;;;3.72;68.64;102527.81;5994043;23;20294;-71
2022/02/12 10:35:33;;;;;;;3.10;3.00;;;;;;;3.73;67.28;102547.75;6027896;23;20031;-70
2022/02/12 10:38:05;;;;;;;3.08;2.97;;;;;;;3.80;68.00;102562.47;5979193;23;20097;-70
2022/02/12 10:40:33;;;;;;;3.17;3.08;;;;;;;3.84;67.66;102537.41;6018063;23;20022;-71
2022/02/12 10:43:00;;;;;;;3.20;3.10;;;;;;;3.87;67.12;102527.06;5970594;23;20031;-70
2022/02/12 10:45:29;;;;;;;3.10;3.00;;;;;;;3.86;67.32;102522.69;5996256;23;20023;-70
2022/02/12 10:47:57;;;;;;;3.28;3.17;;;;;;;4.00;67.62;102518.44;6020275;23;20421;-70
2022/02/12 10:50:28;;;;;;;3.30;3.20;;;;;;;4.11;67.22;102512.41;6010724;23;20011;-70
2022/02/12 10:53:00;;;;;;;3.20;3.10;;;;;;;4.09;67.12;102533.22;6017879;23;20007;-71
2022/02/12 10:55:35;;;;;;;3.33;3.22;;;;;;;4.09;66.49;102504.63;5969322;23;20074;-72
2022/02/12 10:58:07;;;;;;;3.28;3.17;;;;;;;4.07;64.63;102489.88;6024382;23;20018;-71
2022/02/12 11:00:36;;;;;;;3.25;3.15;;;;;;;4.13;64.81;102472.59;5972678;23;20206;-71
2022/02/12 11:03:09;;;;;;;20.05;3.97;;;;;;;4.47;64.67;102492.59;6026656;23;20409;-71
2022/02/12 11:05:37;;;;;;;3.30;3.20;;;;;;;3.75;64.49;102356.47;5977897;23;20612;-71
2022/02/12 11:08:07;;;;;;;3.90;3.72;;;;;;;4.75;64.38;102493.50;6019562;23;20050;-72
2022/02/12 11:10:35;;;;;;;3.47;3.35;;;;;;;4.33;63.90;102420.69;5990908;23;20015;-71
2022/02/12 11:13:06;;;;;;;3.38;3.28;;;;;;;3.58;61.84;102281.13;6019662;23;20087;-72
2022/02/12 11:15:34;;;;;;;3.50;3.40;;;;;;;4.44;62.59;102388.63;6026796;23;20022;-71
2022/02/12 11:18:10;;;;;;;5.38;5.18;;;;;;;4.96;61.73;102456.25;5988830;23;20399;-73
2022/02/12 11:20:39;;;;;;;3.38;3.22;;;;;;;4.72;62.49;102408.56;6002253;23;20381;-72
2022/02/12 11:23:27;;;;;;;4.95;4.75;;;;;;;5.13;62.00;102448.41;5988360;23;20267;-71
2022/02/12 11:26:03;;;;;;;3.85;3.72;;;;;;;3.89;61.23;102234.44;6026930;23;20420;-72
2022/02/12 11:28:33;;;;;;;3.22;3.13;;;;;;;4.70;60.56;102358.28;6018845;23;20023;-71
2022/02/12 11:31:18;;;;;;;3.95;3.80;;;;;;;5.10;59.21;102425.88;6015317;23;20033;-71
2022/02/12 11:34:03;;;;;;;3.45;3.35;;;;;;;5.09;60.08;102416.34;6018182;23;20050;-70
2022/02/12 11:36:31;;;;;;;3.42;3.33;;;;;;;4.90;61.20;102354.78;6029934;23;20093;-70